Newark Liberty International Airport
KEWR : now visible

Airfield :











YOU CAN JOIN US ON...

 
LOGIN :

Register | Disclaimer

   EN    FR    IT 

 









Legend :    VFR   Marginal VFR   IFR   Intensive IFR   Very Intensive IFR
Visi :
Ceiling :
>= 8 km
>= 3000ft
5 to 8 km
1000 to 3000 ft
1500m to 5 km
500 to 1000 ft
800 to 1500m
200 to 500 ft
< 800m
< 200 ft
Symbols :   Thunderstorms  Fog  Heavy snow  Heavy precipitations  Wind > 20 kt






- Airport Elevation : 18 ft
- IATA code : EWR


KEWR - Newark Liberty International

CURRENT METAR :
  • 291451Z 34009KT 10SM SCT038 02/M08 A3010 RMK AO2 SLP191 T00171083 51022

EXPIRED METARs :
  • 291351Z 36015KT 10SM BKN038 01/M08 A3009 RMK AO2 SLP188 T00061083
  • 291251Z 32012KT 10SM OVC039 01/M08 A3006 RMK AO2 SLP178 T00111083

TAF KEWR
Valid from the 29 at 16:00 until the 30 at 18:00 UTC


291530Z 2916/3018 34012KT P6SM SCT040
FM291800 33012KT P6SM SCT250
FM300000 35008KT P6SM SKC
FM300600 01006KT P6SM SKC



MET'MAP, your aeronautical weather chart ! - Copyright ORBIFLY December 2007 - Disclaimer

ORBIFLY MET'MAP TEAM :

Programming & Development : Alexandra Zaïnal
Concept & original design : Baudouin d'Aumeries
Assistance for programming : Marc-Olivier Méhu
Technical & hardware support : Manuel Goepfert

Contact : metmap@orbifly.com




SOURCES & CREDITS :

   NOAA       Earth
Advisory